Time;durP1;ratioP1;P1;durP2;ratioP2;P2;SDS_P1;SDS_P2;PMS_P1;PMS_P2;Temp;Humidity;BMP_temperature;BMP_pressure;BME280_temperature;BME280_humidity;BME280_pressure;Samples;Min_cycle;Max_cycle;Signal;HPM_P1;HPM_P2
2022/10/24 04:32:02;;;;;;;9.95;1.45;;;16.10;84.10;;;;;;5176369;23;20492;-86
2022/10/24 04:34:28;;;;;;;8.23;1.10;;;16.20;84.20;;;;;;4972882;28;20034;-81
2022/10/24 04:36:54;;;;;;;4.85;1.15;;;16.20;84.20;;;;;;4975006;28;20027;-86
2022/10/24 04:39:19;;;;;;;3.90;1.17;;;16.10;84.10;;;;;;4960249;28;20031;-85
2022/10/24 04:41:45;;;;;;;9.85;1.60;;;16.20;84.10;;;;;;4964034;28;20522;-80
2022/10/24 04:44:11;;;;;;;13.05;1.67;;;16.20;84.20;;;;;;4959098;28;20027;-78
2022/10/24 04:46:37;;;;;;;4.93;1.48;;;16.20;84.20;;;;;;4963780;28;20031;-79
2022/10/24 04:49:03;;;;;;;8.73;1.02;;;16.30;84.00;;;;;;4960531;28;20031;-79
2022/10/24 04:51:29;;;;;;;7.63;2.38;;;16.30;83.80;;;;;;4959148;29;20031;-82
2022/10/24 04:53:54;;;;;;;9.60;1.27;;;16.30;83.70;;;;;;4958789;28;20034;-79
2022/10/24 04:56:21;;;;;;;7.85;1.40;;;16.30;83.70;;;;;;4958684;28;20055;-78
2022/10/24 04:58:47;;;;;;;11.88;2.00;;;16.40;83.80;;;;;;4960267;29;20039;-78
2022/10/24 05:01:13;;;;;;;9.68;1.95;;;16.40;83.80;;;;;;4959871;29;20082;-77
2022/10/24 05:03:38;;;;;;;17.65;1.95;;;16.30;83.80;;;;;;4963076;28;20035;-78
2022/10/24 05:06:04;;;;;;;12.45;1.58;;;16.30;83.80;;;;;;4974867;28;20031;-78
2022/10/24 05:08:30;;;;;;;10.63;1.45;;;16.40;83.80;;;;;;4979470;28;20023;-78
2022/10/24 05:10:55;;;;;;;9.98;1.65;;;16.40;83.80;;;;;;4978385;28;20065;-77
2022/10/24 05:13:21;;;;;;;15.85;2.03;;;16.30;83.90;;;;;;4971467;28;20035;-77
2022/10/24 05:15:46;;;;;;;8.23;1.95;;;16.30;84.00;;;;;;4979436;28;20386;-77
2022/10/24 05:18:14;;;;;;;14.00;2.20;;;16.30;84.10;;;;;;4972798;28;20042;-78
2022/10/24 05:20:40;;;;;;;9.30;1.80;;;16.30;84.20;;;;;;4972546;28;20027;-77
2022/10/24 05:23:06;;;;;;;12.02;1.65;;;16.30;84.10;;;;;;4977663;28;20060;-79
2022/10/24 05:25:31;;;;;;;9.68;1.70;;;16.40;84.00;;;;;;4963830;28;20461;-79
2022/10/24 05:27:57;;;;;;;13.93;2.63;;;16.40;84.00;;;;;;4959663;28;20035;-79
2022/10/24 05:30:23;;;;;;;8.65;1.70;;;16.40;84.00;;;;;;4974185;28;20031;-79
2022/10/24 05:32:49;;;;;;;12.15;2.60;;;16.40;84.10;;;;;;4959386;28;20401;-78
2022/10/24 05:35:14;;;;;;;9.80;2.13;;;16.40;84.00;;;;;;4972524;28;20035;-78
2022/10/24 05:37:41;;;;;;;12.13;1.92;;;16.40;84.00;;;;;;4970229;28;20103;-78
2022/10/24 05:40:08;;;;;;;11.52;1.70;;;16.40;84.10;;;;;;4958120;28;20100;-78
2022/10/24 05:42:34;;;;;;;19.80;2.85;;;16.30;84.00;;;;;;4957846;28;20509;-79
2022/10/24 05:44:59;;;;;;;12.70;2.15;;;16.30;84.10;;;;;;4958816;28;20031;-79
2022/10/24 05:47:25;;;;;;;15.55;2.13;;;16.30;84.10;;;;;;4959093;28;20164;-79
2022/10/24 05:49:50;;;;;;;10.77;2.42;;;16.30;84.00;;;;;;4959616;28;20021;-79
2022/10/24 05:52:23;;;;;;;14.35;2.30;;;16.30;84.00;;;;;;4961751;28;20113;-79
2022/10/24 05:54:49;;;;;;;9.73;2.10;;;16.30;84.10;;;;;;4958001;29;20027;-79
2022/10/24 05:57:15;;;;;;;15.50;1.75;;;16.30;84.00;;;;;;4963653;28;20119;-79
2022/10/24 05:59:40;;;;;;;12.02;2.20;;;16.20;84.10;;;;;;4959758;28;20067;-79
2022/10/24 06:02:06;;;;;;;17.08;2.65;;;16.20;84.20;;;;;;4973755;28;20087;-79
2022/10/24 06:04:32;;;;;;;12.25;2.00;;;16.20;84.30;;;;;;4975619;28;20114;-79
2022/10/24 06:06:57;;;;;;;15.82;2.35;;;16.10;84.40;;;;;;4974867;28;20023;-78
2022/10/24 06:09:23;;;;;;;17.02;2.45;;;16.10;84.60;;;;;;4974747;28;20035;-79
2022/10/24 06:11:49;;;;;;;19.25;2.30;;;16.20;84.40;;;;;;4972270;28;20062;-78
2022/10/24 06:14:15;;;;;;;16.58;3.65;;;16.20;84.60;;;;;;4977680;28;20762;-79
2022/10/24 06:16:42;;;;;;;12.70;3.20;;;16.10;84.50;;;;;;4975872;28;20027;-79
2022/10/24 06:19:07;;;;;;;15.80;2.22;;;16.10;84.50;;;;;;4976945;28;20030;-79
2022/10/24 06:21:33;;;;;;;11.20;2.17;;;16.10;84.50;;;;;;4976893;28;20022;-79
2022/10/24 06:23:58;;;;;;;13.10;2.60;;;16.10;84.50;;;;;;4975395;28;20039;-79
2022/10/24 06:26:32;;;;;;;13.85;2.28;;;16.20;84.40;;;;;;4977132;28;20466;-79
2022/10/24 06:28:57;;;;;;;14.25;2.40;;;16.00;84.40;;;;;;4977102;28;20037;-79
2022/10/24 06:31:25;;;;;;;15.68;1.95;;;16.00;84.60;;;;;;4974696;28;20133;-79
2022/10/24 06:33:52;;;;;;;16.92;1.95;;;16.00;84.50;;;;;;4976924;28;20030;-79
2022/10/24 06:36:18;;;;;;;12.70;2.10;;;16.00;84.40;;;;;;4975714;28;20022;-80
2022/10/24 06:38:44;;;;;;;12.43;1.95;;;16.00;84.60;;;;;;4975807;28;20113;-81
2022/10/24 06:41:12;;;;;;;9.48;2.13;;;16.00;84.50;;;;;;4974838;28;20038;-80
2022/10/24 06:43:41;;;;;;;12.82;2.05;;;16.00;84.50;;;;;;4975087;28;20093;-80
2022/10/24 06:46:10;;;;;;;13.82;2.35;;;16.00;84.40;;;;;;4974871;28;20019;-81
2022/10/24 06:48:36;;;;;;;12.25;2.70;;;16.00;84.40;;;;;;4973908;28;20023;-82
2022/10/24 06:51:03;;;;;;;6.43;1.45;;;16.00;84.40;;;;;;4975523;28;20592;-82
2022/10/24 06:53:29;;;;;;;9.60;1.65;;;15.90;84.30;;;;;;4976654;28;20018;-84
2022/10/24 06:55:59;;;;;;;7.72;1.80;;;16.00;84.20;;;;;;4976509;28;20031;-80
2022/10/24 06:58:24;;;;;;;14.07;1.80;;;16.00;84.20;;;;;;4972269;28;20023;-80
2022/10/24 07:00:50;;;;;;;16.13;2.35;;;16.00;84.20;;;;;;4957207;29;20512;-80
2022/10/24 07:03:16;;;;;;;15.88;2.67;;;16.00;84.10;;;;;;4969322;28;20032;-80
2022/10/24 07:05:42;;;;;;;14.93;1.95;;;16.00;84.20;;;;;;4960794;28;20027;-80
2022/10/24 07:08:07;;;;;;;11.90;2.13;;;16.00;84.20;;;;;;4972070;28;20110;-80
2022/10/24 07:10:33;;;;;;;14.40;2.50;;;16.00;84.20;;;;;;4972500;28;20118;-80
2022/10/24 07:12:59;;;;;;;13.18;2.10;;;16.00;84.20;;;;;;4957378;29;20411;-80
2022/10/24 07:15:24;;;;;;;13.15;3.30;;;16.00;84.20;;;;;;4969620;28;20073;-79
2022/10/24 07:17:50;;;;;;;8.70;2.05;;;16.00;84.30;;;;;;4972593;28;20027;-79
2022/10/24 07:20:15;;;;;;;10.52;2.88;;;16.00;84.40;;;;;;4976184;28;20031;-80
2022/10/24 07:22:42;;;;;;;10.68;1.58;;;16.10;84.30;;;;;;4975274;28;20035;-80
2022/10/24 07:25:09;;;;;;;16.00;2.85;;;16.00;84.20;;;;;;4969412;28;20025;-80
2022/10/24 07:27:34;;;;;;;14.20;3.03;;;16.00;84.20;;;;;;4954065;29;20478;-79
2022/10/24 07:30:00;;;;;;;7.75;1.98;;;16.00;84.30;;;;;;4955422;28;20042;-80
2022/10/24 07:32:25;;;;;;;11.38;2.05;;;16.00;84.40;;;;;;4955642;28;20461;-80
2022/10/24 07:34:51;;;;;;;16.40;2.50;;;16.00;84.40;;;;;;4955492;28;20023;-80
2022/10/24 07:37:17;;;;;;;9.88;1.90;;;16.00;84.40;;;;;;4955838;28;20050;-79
2022/10/24 07:39:45;;;;;;;10.73;2.15;;;16.00;84.40;;;;;;4954994;29;20529;-80
2022/10/24 07:42:11;;;;;;;15.80;1.88;;;16.10;84.40;;;;;;4967481;28;20477;-80
2022/10/24 07:44:37;;;;;;;9.65;1.88;;;16.10;84.40;;;;;;4956260;29;20019;-79
2022/10/24 07:47:05;;;;;;;12.82;2.30;;;16.20;84.30;;;;;;4957552;28;20082;-79
2022/10/24 07:49:32;;;;;;;16.90;2.22;;;16.40;83.90;;;;;;4957705;28;20102;-79
2022/10/24 07:51:58;;;;;;;17.20;1.92;;;16.50;83.80;;;;;;4957743;28;20497;-79
2022/10/24 07:54:25;;;;;;;11.35;1.95;;;16.70;83.60;;;;;;4961305;28;20058;-79
2022/10/24 07:56:51;;;;;;;16.75;1.88;;;16.80;83.30;;;;;;4976906;28;20118;-79
2022/10/24 07:59:17;;;;;;;19.00;3.15;;;16.80;83.20;;;;;;4976769;28;20062;-79
2022/10/24 08:01:42;;;;;;;13.70;1.83;;;16.70;83.10;;;;;;4957508;28;20046;-79
2022/10/24 08:04:09;;;;;;;11.93;1.27;;;16.70;83.30;;;;;;4973039;28;20031;-80
2022/10/24 08:06:35;;;;;;;7.70;1.13;;;16.70;83.30;;;;;;4973778;28;20051;-79
2022/10/24 08:09:01;;;;;;;8.95;1.73;;;16.60;83.40;;;;;;4957483;28;20030;-80
2022/10/24 08:11:28;;;;;;;5.82;2.00;;;16.60;83.40;;;;;;4968514;28;20378;-80
2022/10/24 08:13:56;;;;;;;11.50;1.77;;;16.60;83.70;;;;;;4976799;28;20093;-79
2022/10/24 08:16:23;;;;;;;8.25;1.63;;;16.70;83.80;;;;;;4963491;28;20118;-80
2022/10/24 08:18:50;;;;;;;9.60;1.58;;;16.70;83.70;;;;;;4957429;28;20034;-80
2022/10/24 08:21:18;;;;;;;9.95;1.98;;;16.70;83.80;;;;;;4957208;28;20034;-80
2022/10/24 08:23:48;;;;;;;10.30;1.65;;;16.80;83.70;;;;;;4957203;28;20042;-80
2022/10/24 08:26:17;;;;;;;5.53;1.70;;;16.80;83.80;;;;;;4957231;28;20067;-80
2022/10/24 08:28:44;;;;;;;12.40;1.98;;;16.90;83.60;;;;;;4957432;28;20023;-80
2022/10/24 08:31:12;;;;;;;11.35;1.50;;;16.90;83.40;;;;;;4957075;28;20043;-80
2022/10/24 08:33:38;;;;;;;15.80;1.95;;;16.90;83.50;;;;;;4964810;28;20036;-80
2022/10/24 08:36:11;;;;;;;9.55;1.65;;;16.80;83.60;;;;;;4957487;28;20081;-80
2022/10/24 08:38:36;;;;;;;14.32;1.95;;;16.80;83.70;;;;;;4957102;28;20055;-80
2022/10/24 08:41:02;;;;;;;9.10;2.42;;;16.80;83.90;;;;;;4956956;28;20039;-80
2022/10/24 08:43:28;;;;;;;5.97;1.35;;;16.80;83.90;;;;;;4957138;28;20027;-80
2022/10/24 08:46:18;;;;;;;16.15;1.85;;;16.80;84.10;;;;;;4959412;28;20027;-80
2022/10/24 08:48:52;;;;;;;13.55;1.98;;;16.80;84.00;;;;;;4971840;28;20459;-82
2022/10/24 08:51:29;;;;;;;14.25;2.05;;;16.90;84.00;;;;;;4972574;28;20084;-80
2022/10/24 08:53:57;;;;;;;11.38;1.17;;;17.00;84.10;;;;;;4958329;28;20035;-80
2022/10/24 08:56:27;;;;;;;6.00;1.50;;;17.00;83.90;;;;;;4960304;28;20031;-81
2022/10/24 08:58:54;;;;;;;10.95;1.42;;;17.00;83.70;;;;;;4961687;28;20031;-80
2022/10/24 09:01:47;;;;;;;9.70;1.52;;;17.20;83.60;;;;;;4963527;28;20035;-80
2022/10/24 09:04:18;;;;;;;15.48;1.90;;;17.30;83.20;;;;;;4974144;28;20138;-80
2022/10/24 09:06:45;;;;;;;12.38;1.65;;;17.30;83.00;;;;;;4978536;28;20493;-80
2022/10/24 09:09:26;;;;;;;9.25;1.70;;;17.40;82.70;;;;;;4976333;28;20050;-80
2022/10/24 09:12:02;;;;;;;10.65;1.25;;;17.40;82.70;;;;;;4974422;28;20037;-80
2022/10/24 09:14:37;;;;;;;10.65;1.90;;;17.40;82.30;;;;;;4977058;28;20025;-80
2022/10/24 09:17:21;;;;;;;10.32;1.42;;;17.50;81.90;;;;;;4971953;28;20046;-80
2022/10/24 09:19:52;;;;;;;12.90;1.98;;;17.60;81.90;;;;;;4958534;28;20109;-80
2022/10/24 09:22:19;;;;;;;8.18;1.38;;;17.60;81.40;;;;;;4972779;28;20031;-80
2022/10/24 09:24:47;;;;;;;8.60;1.95;;;17.60;81.10;;;;;;4962999;28;20032;-80
2022/10/24 09:27:21;;;;;;;11.80;2.40;;;17.70;81.50;;;;;;4959834;28;20023;-80
2022/10/24 09:29:47;;;;;;;14.55;2.50;;;17.70;81.20;;;;;;4959013;28;20027;-80
2022/10/24 09:32:22;;;;;;;9.90;1.48;;;17.80;81.10;;;;;;4966477;28;20181;-80
2022/10/24 09:34:49;;;;;;;7.53;1.50;;;17.80;81.30;;;;;;4976604;28;20118;-79
2022/10/24 09:37:33;;;;;;;8.02;1.75;;;17.70;81.30;;;;;;4968664;28;20039;-80
2022/10/24 09:40:17;;;;;;;7.68;1.55;;;17.80;81.20;;;;;;4967712;28;20473;-80
2022/10/24 09:43:14;;;;;;;4.40;1.45;;;17.80;80.70;;;;;;4964876;28;20576;-80
2022/10/24 09:45:50;;;;;;;5.13;1.23;;;17.70;80.60;;;;;;4958379;28;20489;-80
2022/10/24 09:48:42;;;;;;;16.98;2.17;;;17.80;80.10;;;;;;4958122;28;20027;-80
2022/10/24 09:51:08;;;;;;;4.85;1.33;;;18.00;79.80;;;;;;4953033;28;20132;-79
2022/10/24 09:53:35;;;;;;;7.78;1.38;;;18.30;79.90;;;;;;4965436;28;20027;-80
2022/10/24 09:56:11;;;;;;;6.95;1.48;;;18.30;79.60;;;;;;4972922;28;20468;-80
2022/10/24 09:58:38;;;;;;;6.05;1.10;;;18.30;79.30;;;;;;4975549;28;20035;-81
2022/10/24 10:01:06;;;;;;;5.82;1.48;;;18.20;79.30;;;;;;4970283;28;20604;-80
2022/10/24 10:03:34;;;;;;;5.95;1.30;;;18.00;78.10;;;;;;4976251;28;20042;-80
2022/10/24 10:06:17;;;;;;;5.97;1.08;;;17.80;78.60;;;;;;4976496;28;20445;-80
2022/10/24 10:08:50;;;;;;;9.23;1.85;;;17.70;78.90;;;;;;4967037;28;20035;-80
2022/10/24 10:11:23;;;;;;;9.20;1.58;;;17.60;79.30;;;;;;4967772;28;20023;-80
2022/10/24 10:13:52;;;;;;;5.88;1.25;;;17.50;79.60;;;;;;4977684;28;20113;-80
2022/10/24 10:16:26;;;;;;;9.88;1.98;;;17.70;79.90;;;;;;4972685;28;20536;-80
2022/10/24 10:19:16;;;;;;;10.32;1.65;;;17.80;79.80;;;;;;4964938;28;20118;-80
2022/10/24 10:21:54;;;;;;;9.38;1.52;;;18.00;80.10;;;;;;4958014;28;20031;-81
2022/10/24 10:24:37;;;;;;;8.73;1.42;;;18.10;79.50;;;;;;4956058;29;20150;-80
2022/10/24 10:27:23;;;;;;;7.85;1.50;;;18.30;79.40;;;;;;4957429;28;20031;-81
2022/10/24 10:29:48;;;;;;;11.07;1.77;;;18.30;79.00;;;;;;4957953;28;20055;-80
2022/10/24 10:32:32;;;;;;;6.72;1.35;;;18.30;78.80;;;;;;4957961;28;20066;-81
2022/10/24 10:35:05;;;;;;;5.50;1.00;;;18.30;78.30;;;;;;4957529;29;20094;-80
2022/10/24 10:37:35;;;;;;;5.20;1.35;;;18.20;78.10;;;;;;4958419;28;20498;-79
2022/10/24 10:40:23;;;;;;;4.95;1.48;;;18.00;78.00;;;;;;4958678;28;20095;-80
2022/10/24 10:43:00;;;;;;;5.43;0.77;;;17.80;77.80;;;;;;4958358;28;20086;-80
2022/10/24 10:45:35;;;;;;;4.93;0.85;;;17.80;78.40;;;;;;4973420;28;20118;-81
2022/10/24 10:48:18;;;;;;;3.97;0.80;;;17.70;78.60;;;;;;4958307;28;20818;-80
2022/10/24 10:50:54;;;;;;;6.93;1.23;;;17.60;78.80;;;;;;4958556;28;20642;-80
2022/10/24 10:53:38;;;;;;;9.48;1.30;;;17.50;78.60;;;;;;4983840;28;20031;-80
2022/10/24 10:56:33;;;;;;;6.18;1.02;;;17.50;78.50;;;;;;4976669;28;20382;-80
2022/10/24 10:59:24;;;;;;;5.30;1.20;;;17.40;78.70;;;;;;4958257;28;20126;-79
2022/10/24 11:01:59;;;;;;;3.58;0.80;;;17.40;78.80;;;;;;4957237;29;20035;-79
2022/10/24 11:04:42;;;;;;;5.00;1.63;;;17.40;79.00;;;;;;4974872;28;20534;-80
2022/10/24 11:07:23;;;;;;;5.30;1.30;;;17.70;79.30;;;;;;4970258;28;20078;-80
2022/10/24 11:09:52;;;;;;;5.63;0.90;;;17.80;79.20;;;;;;4972812;28;20034;-80
2022/10/24 11:12:28;;;;;;;7.13;1.30;;;17.80;79.00;;;;;;4956893;29;20027;-80
2022/10/24 11:15:01;;;;;;;8.15;1.17;;;17.80;78.70;;;;;;4958087;28;20039;-80
2022/10/24 11:17:38;;;;;;;5.43;1.10;;;17.80;78.50;;;;;;4975235;28;20039;-80
2022/10/24 11:20:19;;;;;;;6.60;1.15;;;17.80;78.40;;;;;;4977306;28;20023;-80
2022/10/24 11:23:12;;;;;;;7.63;1.33;;;17.80;78.40;;;;;;4971995;28;20039;-79
2022/10/24 11:25:43;;;;;;;8.25;1.35;;;17.70;78.70;;;;;;4957387;29;20498;-80
2022/10/24 11:28:35;;;;;;;3.50;1.00;;;17.50;79.10;;;;;;4967594;28;20035;-80
2022/10/24 11:31:15;;;;;;;3.72;1.23;;;17.50;79.30;;;;;;4938896;28;20043;-79
2022/10/24 11:33:48;;;;;;;6.45;1.00;;;17.50;79.70;;;;;;4957640;28;20035;-80
2022/10/24 11:36:31;;;;;;;4.95;0.77;;;17.70;80.00;;;;;;4957617;28;20115;-80
2022/10/24 11:39:10;;;;;;;5.18;0.90;;;17.90;79.90;;;;;;4958020;28;20086;-80
2022/10/24 11:41:47;;;;;;;2.43;0.77;;;18.10;79.80;;;;;;4968423;28;20485;-80
2022/10/24 11:44:45;;;;;;;6.25;1.35;;;18.20;79.20;;;;;;4956610;29;20274;-80
2022/10/24 11:47:22;;;;;;;6.78;0.90;;;18.30;78.60;;;;;;4957314;28;20027;-80
2022/10/24 11:50:08;;;;;;;2.25;0.82;;;18.40;78.10;;;;;;4957622;28;20023;-80
2022/10/24 11:52:42;;;;;;;6.68;0.80;;;18.50;77.90;;;;;;4957577;29;20032;-80
2022/10/24 11:55:17;;;;;;;7.90;1.13;;;18.50;77.00;;;;;;4957381;28;20035;-79
2022/10/24 11:57:44;;;;;;;5.20;1.02;;;18.60;77.10;;;;;;4956449;29;20039;-80
2022/10/24 12:00:34;;;;;;;3.55;0.73;;;18.60;76.30;;;;;;4957505;28;20106;-80
2022/10/24 12:03:12;;;;;;;6.32;0.93;;;18.80;76.90;;;;;;4964103;28;20023;-80
2022/10/24 12:06:16;;;;;;;4.63;0.85;;;18.80;76.30;;;;;;4975346;28;20035;-80
2022/10/24 12:09:04;;;;;;;5.70;0.90;;;18.80;76.50;;;;;;4945790;28;20616;-79
2022/10/24 12:11:42;;;;;;;9.23;1.42;;;18.90;76.30;;;;;;4968851;28;20055;-80
2022/10/24 12:14:44;;;;;;;7.68;1.52;;;19.20;76.40;;;;;;4976550;28;20031;-80
2022/10/24 12:17:24;;;;;;;4.85;0.80;;;19.50;76.20;;;;;;4935345;29;20058;-80
2022/10/24 12:19:50;;;;;;;6.70;1.02;;;19.50;75.40;;;;;;4970835;28;20039;-80
2022/10/24 12:22:36;;;;;;;10.55;1.27;;;19.30;75.80;;;;;;4968128;28;20448;-79
2022/10/24 12:25:17;;;;;;;5.63;0.95;;;19.00;75.70;;;;;;4957123;28;20059;-79
2022/10/24 12:27:43;;;;;;;6.20;0.98;;;19.00;76.50;;;;;;4957589;28;20023;-80
2022/10/24 12:30:08;;;;;;;9.20;1.13;;;19.00;76.30;;;;;;4959720;28;20557;-80
2022/10/24 12:32:47;;;;;;;2.03;0.70;;;18.90;76.40;;;;;;4969569;28;20035;-80
2022/10/24 12:35:29;;;;;;;6.57;1.02;;;19.00;76.00;;;;;;4961406;28;20027;-79
2022/10/24 12:37:55;;;;;;;7.25;1.38;;;19.00;76.20;;;;;;4960634;28;20030;-79
2022/10/24 12:40:50;;;;;;;10.88;1.38;;;19.10;76.70;;;;;;4974089;28;20077;-80
2022/10/24 12:43:34;;;;;;;4.00;0.85;;;19.20;75.70;;;;;;4975532;28;20034;-80
2022/10/24 12:46:22;;;;;;;3.53;0.85;;;19.20;76.00;;;;;;4968795;28;20031;-81
2022/10/24 12:48:56;;;;;;;4.80;0.80;;;19.20;75.90;;;;;;4940389;28;20125;-80
2022/10/24 12:51:36;;;;;;;3.08;1.00;;;19.30;75.40;;;;;;4966672;28;20031;-80
2022/10/24 12:54:11;;;;;;;2.47;0.70;;;19.30;75.50;;;;;;4975650;28;20038;-80
2022/10/24 12:56:49;;;;;;;5.15;1.25;;;19.30;74.70;;;;;;4975013;28;20038;-80
2022/10/24 12:59:27;;;;;;;5.18;0.93;;;19.50;75.30;;;;;;4977051;28;20042;-80
2022/10/24 13:02:11;;;;;;;7.65;1.10;;;19.70;74.00;;;;;;4976209;28;20030;-79
2022/10/24 13:05:19;;;;;;;2.80;0.60;;;19.80;74.20;;;;;;4971011;28;20041;-79
2022/10/24 13:08:02;;;;;;;8.32;1.17;;;19.90;72.20;;;;;;4957202;28;20089;-79
2022/10/24 13:10:43;;;;;;;4.47;1.00;;;19.90;71.60;;;;;;4970437;28;20058;-79
2022/10/24 13:13:14;;;;;;;4.68;0.70;;;20.00;71.00;;;;;;4965355;28;20421;-79
2022/10/24 13:16:00;;;;;;;6.32;1.30;;;20.10;70.60;;;;;;4975190;28;20038;-81
2022/10/24 13:18:39;;;;;;;6.55;1.13;;;20.10;69.60;;;;;;4974451;28;20031;-80
2022/10/24 13:21:30;;;;;;;4.10;1.13;;;20.00;68.90;;;;;;4975851;28;20122;-79
2022/10/24 13:24:14;;;;;;;6.20;0.75;;;19.80;68.70;;;;;;4973841;28;20105;-80
2022/10/24 13:27:13;;;;;;;4.03;0.63;;;19.60;69.50;;;;;;4973949;28;20385;-79
2022/10/24 13:29:39;;;;;;;3.83;0.63;;;19.60;70.20;;;;;;4961370;28;20082;-80
2022/10/24 13:32:05;;;;;;;2.70;0.80;;;19.70;70.00;;;;;;4970760;28;20057;-80
2022/10/24 13:34:44;;;;;;;2.80;0.88;;;19.70;70.30;;;;;;4973770;28;20022;-80
2022/10/24 13:37:09;;;;;;;3.92;0.82;;;19.70;69.80;;;;;;4956928;28;20031;-79
2022/10/24 13:39:40;;;;;;;5.78;1.17;;;19.70;70.00;;;;;;4961083;28;20031;-79
2022/10/24 13:42:27;;;;;;;4.18;0.88;;;19.70;69.50;;;;;;4979128;28;20403;-79
2022/10/24 13:45:01;;;;;;;9.48;2.60;;;19.60;69.60;;;;;;4960276;28;20041;-80
2022/10/24 13:47:41;;;;;;;5.28;0.70;;;19.60;69.20;;;;;;4958352;29;20118;-80
2022/10/24 13:50:19;;;;;;;5.05;0.90;;;19.60;69.40;;;;;;4964640;28;20022;-79
2022/10/24 13:52:53;;;;;;;7.75;1.05;;;19.60;69.40;;;;;;4976671;28;20033;-79
2022/10/24 13:55:25;;;;;;;2.45;0.60;;;19.60;69.70;;;;;;4991897;28;20101;-79
2022/10/24 13:57:53;;;;;;;4.90;0.75;;;19.70;69.50;;;;;;4976495;28;20038;-79
2022/10/24 14:00:27;;;;;;;4.43;0.90;;;19.70;68.50;;;;;;4992477;28;20026;-80
2022/10/24 14:02:55;;;;;;;2.20;0.60;;;19.70;69.20;;;;;;4967876;28;20931;-80
2022/10/24 14:05:44;;;;;;;7.03;1.05;;;19.60;69.40;;;;;;4968602;28;20023;-79
2022/10/24 14:08:21;;;;;;;5.15;1.60;;;19.70;68.60;;;;;;4976293;28;20138;-80
2022/10/24 14:10:46;;;;;;;2.25;0.80;;;19.60;68.60;;;;;;4971716;28;20034;-80
2022/10/24 14:13:16;;;;;;;3.30;1.08;;;19.50;68.60;;;;;;4974532;28;20038;-80
2022/10/24 14:15:48;;;;;;;3.35;0.60;;;19.30;68.80;;;;;;4959005;28;20107;-79
2022/10/24 14:18:14;;;;;;;6.07;0.98;;;19.20;69.70;;;;;;4957583;29;20043;-79
2022/10/24 14:20:40;;;;;;;4.22;1.00;;;19.20;69.80;;;;;;4958459;28;20086;-79
2022/10/24 14:23:34;;;;;;;4.10;0.60;;;19.30;69.20;;;;;;4964297;28;20432;-80
2022/10/24 14:26:08;;;;;;;6.80;1.00;;;19.30;69.10;;;;;;4971658;28;20442;-80
2022/10/24 14:28:37;;;;;;;4.07;0.90;;;19.30;69.20;;;;;;4974839;28;20058;-80
2022/10/24 14:31:06;;;;;;;7.88;1.10;;;19.40;69.70;;;;;;4966565;28;20057;-79
2022/10/24 14:33:46;;;;;;;6.10;0.95;;;19.40;69.60;;;;;;4966219;28;20039;-79
2022/10/24 14:36:13;;;;;;;3.22;1.15;;;19.30;69.10;;;;;;4976083;28;20018;-78
2022/10/24 14:38:40;;;;;;;8.57;1.63;;;19.40;69.20;;;;;;4970752;28;20038;-81
2022/10/24 14:41:09;;;;;;;4.18;0.60;;;19.30;69.00;;;;;;4971836;28;20026;-82
2022/10/24 14:43:39;;;;;;;2.97;0.65;;;19.40;69.10;;;;;;4973397;28;20029;-81
2022/10/24 14:46:11;;;;;;;4.30;0.98;;;19.50;68.30;;;;;;4989688;28;20066;-82
2022/10/24 14:48:40;;;;;;;4.80;0.95;;;19.50;68.70;;;;;;4973333;28;20042;-81
2022/10/24 14:51:20;;;;;;;3.08;0.65;;;19.60;67.80;;;;;;4974862;28;20039;-81
2022/10/24 14:53:49;;;;;;;5.63;0.80;;;19.60;67.50;;;;;;4975116;28;20033;-81
2022/10/24 14:56:34;;;;;;;2.53;0.73;;;19.40;67.70;;;;;;4972576;28;20274;-82
2022/10/24 14:59:04;;;;;;;5.38;0.73;;;19.40;68.00;;;;;;4972796;28;20049;-80
2022/10/24 15:01:30;;;;;;;2.75;0.95;;;19.50;68.00;;;;;;4971769;28;20030;-81
2022/10/24 15:03:57;;;;;;;6.88;0.90;;;19.50;68.20;;;;;;4967935;28;20032;-81
2022/10/24 15:06:39;;;;;;;3.58;0.90;;;19.50;68.10;;;;;;4974713;28;20026;-81
2022/10/24 15:09:16;;;;;;;2.70;0.70;;;19.50;68.10;;;;;;4975088;28;20134;-81
2022/10/24 15:11:56;;;;;;;4.57;1.10;;;19.40;67.80;;;;;;4972273;28;20050;-80
2022/10/24 15:14:35;;;;;;;9.70;1.17;;;19.40;67.80;;;;;;4973177;28;20109;-81
2022/10/24 15:17:28;;;;;;;3.78;0.80;;;19.30;67.80;;;;;;4968219;28;20097;-80
2022/10/24 15:20:00;;;;;;;3.13;0.95;;;19.20;68.10;;;;;;4973536;28;20489;-81
2022/10/24 15:22:32;;;;;;;4.55;0.80;;;19.30;68.40;;;;;;4973844;28;20033;-81
2022/10/24 15:25:05;;;;;;;5.28;0.93;;;19.30;68.70;;;;;;4974492;28;20070;-81
2022/10/24 15:27:39;;;;;;;3.72;0.85;;;19.20;68.50;;;;;;4971599;28;20031;-80
2022/10/24 15:30:12;;;;;;;3.25;0.70;;;19.20;68.70;;;;;;4967169;28;20053;-81
2022/10/24 15:32:38;;;;;;;3.95;0.68;;;19.20;68.50;;;;;;4975279;28;20047;-80
2022/10/24 15:35:04;;;;;;;4.03;0.70;;;19.20;68.50;;;;;;4975087;28;20083;-81
2022/10/24 15:37:30;;;;;;;3.47;0.70;;;19.10;68.50;;;;;;4973600;28;20027;-79
2022/10/24 15:40:02;;;;;;;5.28;0.88;;;19.10;68.30;;;;;;4972849;28;20040;-79
2022/10/24 15:42:27;;;;;;;3.03;0.65;;;19.00;68.60;;;;;;4974755;28;20027;-79
2022/10/24 15:44:53;;;;;;;3.75;0.50;;;19.10;68.30;;;;;;4974320;28;20110;-87
2022/10/24 15:47:22;;;;;;;8.38;1.20;;;19.00;68.30;;;;;;4973752;28;20516;-84
2022/10/24 15:49:50;;;;;;;4.18;0.88;;;19.00;68.50;;;;;;4972289;28;20077;-87
2022/10/24 15:52:16;;;;;;;4.65;0.82;;;19.00;68.50;;;;;;4971200;28;20520;-82
2022/10/24 15:54:42;;;;;;;4.57;0.73;;;18.90;68.70;;;;;;4972794;28;20084;-85
2022/10/24 15:57:12;;;;;;;4.80;0.88;;;18.80;68.30;;;;;;4971816;28;20023;-85
2022/10/24 15:59:38;;;;;;;3.28;0.70;;;18.80;69.10;;;;;;4969017;28;20803;-85
2022/10/24 16:02:07;;;;;;;5.95;0.90;;;18.70;69.30;;;;;;4966451;28;20485;-86
2022/10/24 16:04:33;;;;;;;3.78;1.00;;;18.60;69.30;;;;;;4971529;28;20054;-85
2022/10/24 16:07:00;;;;;;;6.47;0.98;;;18.50;69.40;;;;;;4951673;28;20062;-83
2022/10/24 16:09:26;;;;;;;6.18;1.00;;;18.50;70.30;;;;;;4968355;28;20030;-83
2022/10/24 16:11:53;;;;;;;4.55;0.90;;;18.50;70.30;;;;;;4973486;28;20022;-83
2022/10/24 16:14:20;;;;;;;5.15;0.80;;;18.50;70.20;;;;;;4973317;28;20444;-83
2022/10/24 16:16:46;;;;;;;6.65;0.90;;;18.50;70.20;;;;;;4973560;28;20030;-83
2022/10/24 16:19:12;;;;;;;6.03;0.75;;;18.50;70.40;;;;;;4976385;28;20027;-83
2022/10/24 16:21:40;;;;;;;3.95;0.70;;;18.50;70.60;;;;;;4972265;28;20122;-83
2022/10/24 16:24:06;;;;;;;2.47;0.63;;;18.40;70.20;;;;;;4974247;28;20042;-83
2022/10/24 16:26:33;;;;;;;2.08;0.50;;;18.40;69.80;;;;;;4973074;28;20083;-83
2022/10/24 16:28:58;;;;;;;3.28;0.70;;;18.40;69.60;;;;;;4974872;28;20027;-84
2022/10/24 16:31:24;;;;;;;3.95;0.95;;;18.40;69.70;;;;;;4975725;28;20668;-83
2022/10/24 16:33:50;;;;;;;4.22;0.70;;;18.30;69.70;;;;;;4973438;28;20031;-83
2022/10/24 16:36:17;;;;;;;5.47;0.77;;;18.30;69.60;;;;;;4973255;28;20022;-82
2022/10/24 16:38:45;;;;;;;2.63;0.90;;;18.30;69.90;;;;;;4979069;28;20111;-83
2022/10/24 16:41:20;;;;;;;7.55;1.50;;;18.10;70.20;;;;;;4974421;28;20724;-82
2022/10/24 16:43:46;;;;;;;5.43;0.90;;;18.10;70.40;;;;;;4959080;28;20023;-82
2022/10/24 16:46:19;;;;;;;7.22;1.10;;;18.00;70.60;;;;;;4974114;28;20026;-83
2022/10/24 16:48:45;;;;;;;4.18;0.73;;;18.00;71.10;;;;;;4974544;28;20038;-81
2022/10/24 16:51:18;;;;;;;2.03;0.93;;;17.90;71.50;;;;;;4970045;28;20480;-81
2022/10/24 16:53:44;;;;;;;2.83;1.23;;;17.80;71.30;;;;;;4955678;28;20038;-82
2022/10/24 16:56:12;;;;;;;3.60;0.75;;;17.80;71.70;;;;;;4955807;28;20066;-81
2022/10/24 16:58:38;;;;;;;4.15;1.60;;;17.80;71.70;;;;;;4973872;28;20027;-83
2022/10/24 17:01:06;;;;;;;4.32;0.68;;;17.80;71.50;;;;;;4964829;28;20042;-82
2022/10/24 17:03:32;;;;;;;4.88;1.15;;;17.80;71.70;;;;;;4961671;28;20039;-80
2022/10/24 17:05:58;;;;;;;6.07;0.70;;;17.70;71.80;;;;;;4953829;28;20019;-81
2022/10/24 17:08:24;;;;;;;2.30;0.90;;;17.70;72.10;;;;;;4959556;28;20465;-86
2022/10/24 17:10:52;;;;;;;3.55;0.50;;;17.70;72.40;;;;;;4962774;28;20409;-80
2022/10/24 17:13:17;;;;;;;5.90;1.23;;;17.70;72.50;;;;;;4970938;28;20042;-80
2022/10/24 17:15:43;;;;;;;4.10;1.00;;;17.70;72.70;;;;;;4962567;28;20037;-79
2022/10/24 17:18:09;;;;;;;5.10;0.68;;;17.60;73.00;;;;;;4978936;28;20444;-81
2022/10/24 17:20:34;;;;;;;4.00;0.98;;;17.60;73.30;;;;;;4975141;28;20073;-78
2022/10/24 17:23:00;;;;;;;5.80;0.98;;;17.60;73.40;;;;;;4966555;28;20069;-78
2022/10/24 17:25:27;;;;;;;7.65;1.25;;;17.60;73.70;;;;;;4980970;28;20063;-79
2022/10/24 17:27:53;;;;;;;5.80;1.38;;;17.60;73.70;;;;;;4970115;28;20023;-80
2022/10/24 17:30:24;;;;;;;2.33;1.38;;;17.60;73.70;;;;;;4979246;28;20122;-82
2022/10/24 17:32:49;;;;;;;8.43;1.45;;;17.60;74.00;;;;;;4963968;28;20023;-78
2022/10/24 17:35:17;;;;;;;5.15;0.98;;;17.50;74.10;;;;;;4970698;28;20117;-81
2022/10/24 17:37:55;;;;;;;4.57;1.05;;;17.50;74.30;;;;;;4973939;28;20022;-79